Weather at Grenchen Airport

Public forecast

Using degrees Celsius for public forecast. Weather courtesy of forecast.io.

Current aviation weather report (METAR) for Grenchen Airport

Retrieved 2020/10/22 22:20 UTC (35 minutes ago):

LSZG 222220Z AUTO 31002KT 1600 BR NSC 11/11 Q1018

Closest aviation forecast (TAF) to Grenchen Airport

Closest forecast is EuroAirport Basel-Mulhouse-Freiburg Airport, 24.9 nm (46.2 km) N. Retrieved 2020/10/22 18:00 UTC (5 hours ago):

TAF LFSB 221702Z 2218/2318 12006KT 9999 -RA FEW030 SCT060 BKN080 PROB40 TEMPO 2300/2309 4500 RA BR PROB40 TEMPO 2315/2318 25010KT 5000 SHRA FEW030CB BKN040